createdAt,value
2022-10-20T00:01:11.233Z,0.70
2022-10-20T00:03:38.775Z,0.60
2022-10-20T00:06:24.211Z,0.90
2022-10-20T00:08:51.989Z,0.73
2022-10-20T00:11:20.865Z,0.60
2022-10-20T00:13:49.624Z,0.70
2022-10-20T00:16:17.683Z,0.57
2022-10-20T00:18:45.031Z,0.50
2022-10-20T00:21:18.553Z,0.50
2022-10-20T00:23:45.580Z,0.30
2022-10-20T00:26:21.737Z,0.60
2022-10-20T00:28:49.093Z,0.90
2022-10-20T00:31:17.246Z,0.50
2022-10-20T00:33:46.041Z,0.30
2022-10-20T00:36:16.965Z,0.50
2022-10-20T00:38:44.475Z,0.60
2022-10-20T00:41:17.927Z,0.47
2022-10-20T00:43:54.844Z,0.70
2022-10-20T00:46:38.398Z,0.60
2022-10-20T00:49:26.207Z,0.60
2022-10-20T00:51:54.825Z,0.50
2022-10-20T00:54:26.189Z,0.63
2022-10-20T00:56:56.080Z,0.53
2022-10-20T00:59:27.002Z,0.50
2022-10-20T01:01:55.141Z,0.60
2022-10-20T01:04:22.812Z,0.77
2022-10-20T01:06:49.863Z,0.40
2022-10-20T01:09:16.959Z,0.63
2022-10-20T01:12:01.771Z,0.60
2022-10-20T01:14:34.434Z,0.60
2022-10-20T01:17:34.784Z,0.60
2022-10-20T01:20:20.811Z,0.60
2022-10-20T01:23:25.800Z,0.40
2022-10-20T01:25:58.762Z,0.47
2022-10-20T01:28:50.410Z,0.50
2022-10-20T01:31:39.315Z,0.50
2022-10-20T01:34:50.506Z,0.70
2022-10-20T01:37:47.596Z,0.50
2022-10-20T01:40:31.242Z,0.60
2022-10-20T01:43:03.123Z,0.50
2022-10-20T01:45:34.469Z,0.40
2022-10-20T01:48:05.322Z,0.60
2022-10-20T01:50:34.943Z,0.70
2022-10-20T01:53:02.802Z,0.70
2022-10-20T01:55:30.626Z,0.60
2022-10-20T01:58:03.101Z,0.60
2022-10-20T02:00:30.061Z,0.60
2022-10-20T02:03:02.709Z,1.13
2022-10-20T02:05:38.664Z,0.70
2022-10-20T02:08:11.375Z,0.90
2022-10-20T02:10:48.648Z,0.63
2022-10-20T02:13:18.177Z,0.50
2022-10-20T02:15:54.037Z,0.80
2022-10-20T02:18:37.136Z,0.60
2022-10-20T02:21:06.239Z,0.70
2022-10-20T02:23:37.712Z,0.40
2022-10-20T02:26:07.827Z,0.70
2022-10-20T02:28:37.467Z,0.50
2022-10-20T02:31:05.303Z,0.50
2022-10-20T02:33:33.780Z,0.47
2022-10-20T02:36:04.229Z,0.50
2022-10-20T02:38:31.461Z,0.50
2022-10-20T02:40:58.388Z,0.30
2022-10-20T02:43:25.330Z,0.60
2022-10-20T02:45:52.260Z,0.40
2022-10-20T02:48:19.216Z,0.57
2022-10-20T02:50:46.218Z,0.43
2022-10-20T02:53:13.136Z,0.40
2022-10-20T02:55:41.316Z,0.47
2022-10-20T02:58:08.289Z,0.30
2022-10-20T03:00:35.348Z,0.43
2022-10-20T03:03:02.310Z,0.60
2022-10-20T03:05:29.474Z,0.40
2022-10-20T03:07:56.487Z,0.50
2022-10-20T03:10:23.448Z,0.50
2022-10-20T03:12:50.378Z,0.53
2022-10-20T03:15:17.534Z,0.40
2022-10-20T03:17:44.479Z,0.40
2022-10-20T03:20:11.714Z,0.50
2022-10-20T03:22:38.712Z,0.40
2022-10-20T03:25:06.047Z,0.43
2022-10-20T03:27:33.059Z,0.40
2022-10-20T03:30:00.285Z,0.50
2022-10-20T03:32:27.258Z,0.43
2022-10-20T03:34:54.259Z,0.33
2022-10-20T03:37:21.247Z,0.30
2022-10-20T03:39:48.183Z,0.37
2022-10-20T03:42:15.359Z,0.33
2022-10-20T03:44:45.007Z,0.30
2022-10-20T03:47:13.356Z,0.40
2022-10-20T03:49:40.793Z,0.20
2022-10-20T03:52:07.765Z,0.40
2022-10-20T03:54:36.625Z,0.40
2022-10-20T03:57:06.914Z,0.40
2022-10-20T03:59:34.947Z,0.43
2022-10-20T04:02:02.084Z,0.53
2022-10-20T04:04:31.928Z,0.33
2022-10-20T04:06:58.906Z,0.30
2022-10-20T04:09:25.874Z,0.40
2022-10-20T04:11:52.832Z,0.30
2022-10-20T04:14:19.763Z,0.50
2022-10-20T04:16:46.731Z,0.40
2022-10-20T04:19:13.781Z,0.70
2022-10-20T04:21:40.727Z,0.50
2022-10-20T04:24:07.918Z,0.50
2022-10-20T04:26:34.924Z,0.50
2022-10-20T04:29:02.775Z,0.50
2022-10-20T04:31:29.760Z,0.47
2022-10-20T04:33:56.716Z,0.43
2022-10-20T04:36:23.707Z,0.60
2022-10-20T04:38:50.684Z,0.40
2022-10-20T04:41:17.728Z,0.60
2022-10-20T04:43:49.480Z,0.50
2022-10-20T04:46:16.428Z,0.60
2022-10-20T04:48:44.441Z,0.50
2022-10-20T04:51:13.911Z,0.40
2022-10-20T04:53:41.068Z,0.43
2022-10-20T04:56:10.645Z,0.40
2022-10-20T04:58:37.775Z,0.30
2022-10-20T05:01:07.954Z,0.40
2022-10-20T05:03:36.484Z,0.60
2022-10-20T05:06:15.811Z,0.40
2022-10-20T05:08:46.618Z,0.30
2022-10-20T05:11:15.153Z,0.40
2022-10-20T05:13:43.005Z,0.50
2022-10-20T05:16:11.084Z,0.50
2022-10-20T05:18:38.744Z,0.50
2022-10-20T05:21:09.465Z,0.30
2022-10-20T05:23:38.425Z,0.47
2022-10-20T05:26:07.172Z,0.30
2022-10-20T05:28:34.496Z,0.60
2022-10-20T05:31:06.473Z,0.63
2022-10-20T05:33:34.264Z,0.50
2022-10-20T05:36:06.711Z,0.33
2022-10-20T05:38:35.933Z,0.60
2022-10-20T05:41:07.577Z,0.50
2022-10-20T05:43:34.604Z,0.43
2022-10-20T05:46:02.043Z,1.67
2022-10-20T05:48:29.025Z,0.50
2022-10-20T05:50:55.950Z,0.50
2022-10-20T05:53:22.919Z,0.40
2022-10-20T05:55:49.888Z,0.40
2022-10-20T05:58:18.581Z,0.40
2022-10-20T06:00:52.870Z,0.30
2022-10-20T06:03:21.249Z,0.40
2022-10-20T06:05:57.917Z,0.63
2022-10-20T06:08:24.931Z,0.50
2022-10-20T06:10:51.889Z,0.40
2022-10-20T06:13:19.019Z,0.30
2022-10-20T06:15:47.661Z,0.50
2022-10-20T06:18:14.937Z,0.50
2022-10-20T06:20:41.910Z,0.50
2022-10-20T06:23:08.831Z,0.40
2022-10-20T06:25:35.801Z,0.40
2022-10-20T06:28:02.764Z,0.40
2022-10-20T06:30:30.696Z,0.40
2022-10-20T06:32:57.607Z,0.43
2022-10-20T06:35:24.551Z,0.50
2022-10-20T06:37:51.453Z,0.40
2022-10-20T06:40:18.676Z,0.30
2022-10-20T06:42:45.658Z,0.40
2022-10-20T06:45:14.432Z,0.30
2022-10-20T06:47:43.936Z,0.10
2022-10-20T06:50:10.950Z,0.30
2022-10-20T06:52:38.373Z,0.20
2022-10-20T06:55:05.991Z,0.20
2022-10-20T06:57:32.975Z,0.30
2022-10-20T06:59:59.924Z,0.28
2022-10-20T07:02:26.859Z,0.30
2022-10-20T07:04:53.795Z,0.20
2022-10-20T07:07:20.764Z,0.10
2022-10-20T07:09:47.788Z,0.20
2022-10-20T07:12:14.764Z,0.20
2022-10-20T07:14:41.728Z,0.10
2022-10-20T07:17:08.710Z,0.20
2022-10-20T07:19:35.630Z,0.20
2022-10-20T07:22:03.127Z,0.10
2022-10-20T07:24:30.155Z,0.30
2022-10-20T07:26:57.098Z,0.17
2022-10-20T07:29:24.145Z,0.20
2022-10-20T07:31:51.151Z,0.20
2022-10-20T07:34:25.857Z,0.20
2022-10-20T07:36:54.292Z,0.10
2022-10-20T07:39:21.313Z,0.10
2022-10-20T07:41:48.784Z,0.10
2022-10-20T07:44:16.462Z,0.17
2022-10-20T07:46:43.612Z,1.02
2022-10-20T07:49:39.288Z,0.10
2022-10-20T07:51:57.567Z,0.10
2022-10-20T07:54:24.531Z,0.20
2022-10-20T07:56:51.537Z,0.10
2022-10-20T07:59:19.054Z,0.10
2022-10-20T08:01:46.429Z,0.22
2022-10-20T08:04:13.552Z,0.17
2022-10-20T08:06:40.542Z,0.35
2022-10-20T08:09:07.850Z,0.10
2022-10-20T08:11:35.583Z,0.10
2022-10-20T08:14:02.698Z,0.10
2022-10-20T08:16:32.889Z,0.05
2022-10-20T08:21:46.279Z,0.10
2022-10-20T08:24:13.218Z,0.20
2022-10-20T08:26:40.204Z,0.10
2022-10-20T08:29:07.149Z,0.08
2022-10-20T08:31:34.091Z,0.10
2022-10-20T08:34:01.125Z,0.10
2022-10-20T08:36:28.348Z,0.10
2022-10-20T08:38:56.476Z,0.10
2022-10-20T08:41:55.250Z,0.10
2022-10-20T08:44:29.427Z,0.08
2022-10-20T08:46:56.821Z,0.08
2022-10-20T08:49:27.971Z,0.10
2022-10-20T08:51:55.058Z,0.15
2022-10-20T08:54:22.357Z,0.20
2022-10-20T08:56:49.388Z,0.13
2022-10-20T08:59:39.604Z,0.10
2022-10-20T09:02:17.350Z,0.10
2022-10-20T09:04:58.548Z,0.10
2022-10-20T09:07:43.329Z,0.10
2022-10-20T09:10:16.165Z,0.00
2022-10-20T09:12:45.475Z,0.10
2022-10-20T09:15:14.668Z,0.10
2022-10-20T09:17:53.060Z,0.10
2022-10-20T09:20:24.444Z,0.05
2022-10-20T09:22:51.842Z,0.00
2022-10-20T09:25:24.078Z,0.10
2022-10-20T09:27:52.541Z,0.10
2022-10-20T09:30:36.082Z,0.10
2022-10-20T09:33:31.336Z,0.25
2022-10-20T09:36:22.121Z,0.10
2022-10-20T09:38:51.629Z,0.10
2022-10-20T09:41:24.862Z,0.00
2022-10-20T09:43:58.264Z,0.03
2022-10-20T09:46:34.710Z,0.10
2022-10-20T09:49:01.657Z,0.00
2022-10-20T09:51:30.517Z,0.10
2022-10-20T09:54:03.365Z,0.10
2022-10-20T09:56:33.817Z,0.00
2022-10-20T09:59:03.218Z,0.10
2022-10-20T10:01:30.681Z,0.03
2022-10-20T10:04:02.212Z,0.00
2022-10-20T10:06:40.525Z,0.10
2022-10-20T10:09:32.017Z,0.03
2022-10-20T10:12:04.567Z,0.00
2022-10-20T10:14:33.582Z,0.00
2022-10-20T10:17:01.180Z,0.03
2022-10-20T10:19:31.370Z,0.00
2022-10-20T10:22:01.907Z,0.08
2022-10-20T10:24:46.581Z,0.10
2022-10-20T10:27:24.196Z,0.00
2022-10-20T10:29:51.416Z,0.03
2022-10-20T10:32:29.538Z,0.00
2022-10-20T10:35:25.897Z,0.10
2022-10-20T10:37:54.546Z,0.00
2022-10-20T10:40:31.738Z,0.15
2022-10-20T10:43:29.945Z,0.28
2022-10-20T10:46:01.411Z,0.20
2022-10-20T10:48:46.452Z,0.10
2022-10-20T10:51:19.226Z,0.10
2022-10-20T10:54:09.379Z,0.20
2022-10-20T10:56:51.815Z,0.08
2022-10-20T10:59:27.647Z,0.40
2022-10-20T11:02:15.908Z,0.17
2022-10-20T11:05:13.090Z,0.10
2022-10-20T11:08:16.634Z,0.20
2022-10-20T11:10:49.573Z,0.10
2022-10-20T11:13:35.451Z,0.10
2022-10-20T11:16:15.210Z,0.15
2022-10-20T11:18:48.274Z,0.10
2022-10-20T11:21:32.984Z,0.15
2022-10-20T11:24:24.751Z,0.10
2022-10-20T11:27:12.001Z,0.00
2022-10-20T11:29:49.971Z,0.05
2022-10-20T11:32:40.082Z,0.00
2022-10-20T11:35:40.990Z,0.10
2022-10-20T11:38:35.003Z,0.00
2022-10-20T11:41:05.791Z,0.00
2022-10-20T11:43:45.802Z,0.05
2022-10-20T11:46:25.208Z,0.00
2022-10-20T11:48:54.522Z,0.00
2022-10-20T11:51:30.614Z,0.00
2022-10-20T11:54:14.419Z,0.08
2022-10-20T11:57:19.002Z,0.00
2022-10-20T11:59:58.181Z,0.05
2022-10-20T12:03:06.627Z,0.10
2022-10-20T12:05:55.284Z,0.00
2022-10-20T12:08:29.950Z,0.00
2022-10-20T12:11:08.345Z,0.38
2022-10-20T12:13:38.303Z,0.10
2022-10-20T12:16:05.482Z,0.20
2022-10-20T12:18:35.246Z,0.00
2022-10-20T12:21:05.044Z,0.10
2022-10-20T12:23:44.640Z,0.15
2022-10-20T12:26:30.259Z,0.00
2022-10-20T12:28:57.821Z,0.08
2022-10-20T12:31:28.407Z,0.00
2022-10-20T12:33:56.587Z,0.00
2022-10-20T12:36:34.226Z,0.10
2022-10-20T12:39:14.523Z,0.00
2022-10-20T12:42:05.169Z,0.00
2022-10-20T12:44:41.979Z,0.00
2022-10-20T12:47:10.571Z,0.00
2022-10-20T12:49:50.247Z,0.10
2022-10-20T12:52:24.465Z,0.00
2022-10-20T12:55:02.807Z,0.22
2022-10-20T12:57:41.327Z,0.40
2022-10-20T13:00:28.466Z,0.65
2022-10-20T13:02:57.245Z,0.17
2022-10-20T13:05:43.946Z,0.40
2022-10-20T13:08:19.672Z,0.10
2022-10-20T13:10:47.800Z,0.17
2022-10-20T13:13:20.783Z,0.13
2022-10-20T13:15:53.728Z,0.10
2022-10-20T13:18:35.280Z,0.45
2022-10-20T13:21:26.674Z,0.20
2022-10-20T13:24:11.177Z,0.10
2022-10-20T13:26:44.249Z,0.45
2022-10-20T13:29:17.043Z,0.50
2022-10-20T13:32:06.845Z,0.10
2022-10-20T13:34:47.011Z,0.03
2022-10-20T13:37:43.733Z,0.32
2022-10-20T13:40:23.778Z,0.10
2022-10-20T13:43:09.202Z,0.20
2022-10-20T13:45:36.123Z,0.30
2022-10-20T13:48:18.146Z,0.13
2022-10-20T13:50:53.477Z,0.10
2022-10-20T13:53:25.996Z,0.20
2022-10-20T13:55:58.561Z,0.30
2022-10-20T13:58:26.219Z,0.20
2022-10-20T14:01:19.329Z,0.30
2022-10-20T14:03:47.427Z,0.20
2022-10-20T14:06:36.715Z,0.40
2022-10-20T14:09:24.258Z,0.43
2022-10-20T14:11:55.677Z,0.55
2022-10-20T14:14:25.995Z,0.30
2022-10-20T14:16:57.479Z,0.30
2022-10-20T14:19:28.820Z,0.30
2022-10-20T14:21:57.735Z,0.60
2022-10-20T14:24:34.463Z,0.47
2022-10-20T14:27:04.016Z,0.40
2022-10-20T14:29:38.691Z,0.40
2022-10-20T14:32:07.005Z,0.40
2022-10-20T14:34:36.166Z,0.20
2022-10-20T14:37:05.375Z,0.40
2022-10-20T14:39:40.416Z,0.30
2022-10-20T14:42:23.151Z,0.40
2022-10-20T14:44:51.899Z,0.30
2022-10-20T14:47:20.756Z,0.60
2022-10-20T14:49:52.384Z,0.60
2022-10-20T14:52:21.781Z,0.50
2022-10-20T14:54:50.803Z,0.60
2022-10-20T14:57:17.711Z,0.63
2022-10-20T14:59:59.240Z,1.00
2022-10-20T15:02:32.897Z,1.10
2022-10-20T15:05:24.283Z,0.90
2022-10-20T15:07:51.474Z,0.90
2022-10-20T15:10:21.529Z,1.30
2022-10-20T15:12:52.164Z,1.50
2022-10-20T15:15:23.711Z,1.60
2022-10-20T15:18:11.018Z,1.80
2022-10-20T15:20:42.672Z,1.10
2022-10-20T15:23:12.452Z,2.03
2022-10-20T15:25:59.342Z,1.03
2022-10-20T15:28:40.956Z,1.50
2022-10-20T15:31:13.756Z,1.70
2022-10-20T15:33:41.713Z,1.00
2022-10-20T15:36:15.142Z,1.20
2022-10-20T15:38:42.996Z,1.70
2022-10-20T15:41:14.929Z,1.20
2022-10-20T15:43:42.018Z,1.40
2022-10-20T15:46:13.783Z,0.90
2022-10-20T15:48:41.458Z,0.60
2022-10-20T15:51:29.099Z,0.87
2022-10-20T15:53:56.748Z,1.10
2022-10-20T15:56:24.182Z,1.43
2022-10-20T15:58:51.828Z,1.30
2022-10-20T16:01:21.469Z,1.47
2022-10-20T16:03:49.131Z,1.40
2022-10-20T16:06:18.461Z,1.57
2022-10-20T16:08:47.484Z,1.60
2022-10-20T16:11:16.608Z,1.40
2022-10-20T16:13:43.899Z,1.63
2022-10-20T16:16:19.448Z,1.33
2022-10-20T16:18:46.546Z,1.10
2022-10-20T16:21:13.814Z,1.00
2022-10-20T16:23:42.630Z,1.10
2022-10-20T16:26:13.171Z,1.53
2022-10-20T16:28:40.693Z,1.50
2022-10-20T16:31:10.389Z,1.90
2022-10-20T16:33:37.775Z,2.23
2022-10-20T16:38:40.465Z,2.80
2022-10-20T16:41:13.371Z,1.93
2022-10-20T16:43:42.143Z,1.83
2022-10-20T16:46:10.870Z,2.00
2022-10-20T16:48:41.359Z,2.80
2022-10-20T16:51:12.276Z,2.43
2022-10-20T16:53:39.380Z,1.70
2022-10-20T16:56:07.307Z,2.00
2022-10-20T16:58:34.310Z,2.73
2022-10-20T17:01:04.663Z,2.30
2022-10-20T17:03:32.261Z,1.70
2022-10-20T17:06:03.890Z,2.20
2022-10-20T17:08:32.133Z,1.83
2022-10-20T17:11:13.775Z,2.00
2022-10-20T17:13:40.721Z,2.10
2022-10-20T17:16:09.448Z,1.43
2022-10-20T17:18:36.605Z,1.20
2022-10-20T17:21:04.032Z,1.47
2022-10-20T17:23:38.785Z,1.87
2022-10-20T17:26:11.799Z,2.40
2022-10-20T17:28:38.791Z,2.10
2022-10-20T17:31:07.551Z,2.37
2022-10-20T17:33:35.131Z,2.13
2022-10-20T17:36:02.360Z,1.70
2022-10-20T17:38:30.220Z,1.50
2022-10-20T17:41:13.318Z,1.43
2022-10-20T17:43:41.015Z,1.63
2022-10-20T17:46:11.625Z,1.80
2022-10-20T17:48:39.600Z,2.30
2022-10-20T17:51:12.762Z,3.00
2022-10-20T17:53:43.562Z,2.23
2022-10-20T17:56:13.309Z,2.70
2022-10-20T17:58:42.598Z,3.07
2022-10-20T18:01:21.095Z,2.60
2022-10-20T18:03:52.765Z,2.63
2022-10-20T18:06:22.828Z,3.30
2022-10-20T18:08:52.492Z,3.43
2022-10-20T18:11:22.539Z,2.90
2022-10-20T18:13:49.804Z,2.90
2022-10-20T18:16:18.556Z,2.03
2022-10-20T18:18:45.934Z,2.60
2022-10-20T18:21:17.651Z,3.40
2022-10-20T18:23:45.958Z,4.70
2022-10-20T18:26:15.644Z,9.03
2022-10-20T18:28:45.820Z,5.27
2022-10-20T18:31:23.756Z,5.73
2022-10-20T18:34:04.462Z,4.60
2022-10-20T18:36:35.633Z,4.53
2022-10-20T18:39:05.290Z,4.23
2022-10-20T18:41:37.941Z,3.27
2022-10-20T18:44:10.011Z,2.43
2022-10-20T18:46:37.559Z,3.23
2022-10-20T18:49:07.255Z,2.10
2022-10-20T18:51:35.744Z,2.40
2022-10-20T18:54:04.100Z,10.60
2022-10-20T18:56:31.744Z,3.70
2022-10-20T18:59:01.168Z,3.07
2022-10-20T19:01:31.220Z,3.67
2022-10-20T19:03:59.703Z,3.00
2022-10-20T19:06:35.286Z,3.47
2022-10-20T19:09:05.360Z,4.90
2022-10-20T19:11:34.489Z,3.93
2022-10-20T19:14:01.683Z,3.10
2022-10-20T19:16:31.428Z,4.60
2022-10-20T19:19:00.750Z,4.07
2022-10-20T19:21:29.025Z,4.27
2022-10-20T19:24:02.243Z,3.50
2022-10-20T19:26:32.230Z,4.73
2022-10-20T19:29:08.892Z,2.90
2022-10-20T19:31:43.351Z,3.70
2022-10-20T19:34:22.461Z,3.90
2022-10-20T19:36:49.512Z,3.33
2022-10-20T19:39:19.361Z,3.50
2022-10-20T19:41:46.775Z,3.43
2022-10-20T19:44:15.593Z,3.63
2022-10-20T19:46:44.687Z,3.00
2022-10-20T19:49:12.447Z,2.50
2022-10-20T19:51:40.047Z,2.17
2022-10-20T19:54:07.291Z,3.60
2022-10-20T19:56:34.981Z,2.77
2022-10-20T19:59:03.912Z,3.10
2022-10-20T20:01:31.341Z,2.93
2022-10-20T20:03:59.876Z,3.47
2022-10-20T20:06:28.532Z,2.93
2022-10-20T20:08:59.290Z,3.80
2022-10-20T20:11:30.839Z,3.87
2022-10-20T20:13:59.407Z,2.60
2022-10-20T20:16:27.280Z,3.20
2022-10-20T20:18:54.634Z,2.43
2022-10-20T20:21:22.926Z,1.70
2022-10-20T20:23:59.818Z,1.60
2022-10-20T20:26:32.372Z,1.30
2022-10-20T20:29:00.112Z,1.20
2022-10-20T20:31:28.013Z,1.33
2022-10-20T20:33:56.930Z,1.37
2022-10-20T20:36:27.075Z,1.40
2022-10-20T20:38:57.443Z,1.20
2022-10-20T20:41:26.817Z,1.40
2022-10-20T20:43:54.719Z,1.67
2022-10-20T20:46:23.830Z,0.70
2022-10-20T20:48:51.292Z,0.60
2022-10-20T20:51:18.753Z,0.80
2022-10-20T20:53:45.725Z,7.17
2022-10-20T20:56:20.504Z,1.63
2022-10-20T20:58:50.459Z,0.67
2022-10-20T21:01:21.164Z,1.43
2022-10-20T21:03:52.183Z,0.60
2022-10-20T21:06:19.230Z,0.90
2022-10-20T21:08:47.711Z,0.80
2022-10-20T21:11:22.990Z,0.60
2022-10-20T21:13:51.903Z,0.60
2022-10-20T21:16:25.748Z,0.70
2022-10-20T21:18:54.868Z,1.00
2022-10-20T21:21:24.782Z,0.70
2022-10-20T21:23:52.598Z,1.17
2022-10-20T21:26:20.823Z,0.80
2022-10-20T21:28:48.617Z,0.90
2022-10-20T21:31:18.746Z,0.80
2022-10-20T21:33:50.007Z,1.00
2022-10-20T21:36:18.482Z,0.80
2022-10-20T21:38:45.712Z,0.87
2022-10-20T21:41:17.670Z,0.90
2022-10-20T21:43:47.268Z,1.03
2022-10-20T21:46:30.561Z,1.23
2022-10-20T21:49:09.998Z,1.27
2022-10-20T21:51:39.937Z,0.60
2022-10-20T21:54:10.846Z,1.10
2022-10-20T21:56:41.140Z,1.37
2022-10-20T21:59:13.924Z,1.50
2022-10-20T22:01:40.858Z,1.23
2022-10-20T22:04:07.779Z,5.77
2022-10-20T22:06:37.131Z,4.03
2022-10-20T22:09:04.736Z,3.80
2022-10-20T22:11:35.288Z,3.23
2022-10-20T22:14:03.119Z,2.40
2022-10-20T22:16:32.890Z,2.20
2022-10-20T22:19:06.225Z,2.30
2022-10-20T22:21:37.329Z,1.90
2022-10-20T22:24:04.869Z,1.53
2022-10-20T22:26:32.849Z,1.60
2022-10-20T22:29:01.200Z,1.80
2022-10-20T22:31:28.689Z,1.40
2022-10-20T22:33:57.791Z,1.53
2022-10-20T22:36:26.072Z,2.00
2022-10-20T22:38:53.503Z,1.80
2022-10-20T22:41:20.548Z,1.63
2022-10-20T22:43:47.891Z,1.50
2022-10-20T22:46:16.044Z,1.80
2022-10-20T22:48:43.249Z,1.80
2022-10-20T22:51:10.694Z,1.50
2022-10-20T22:53:38.305Z,1.40
2022-10-20T22:56:12.896Z,1.37
2022-10-20T22:58:40.693Z,1.37
2022-10-20T23:01:09.805Z,1.17
2022-10-20T23:03:37.667Z,1.33
2022-10-20T23:06:14.469Z,1.23
2022-10-20T23:08:44.752Z,1.20
2022-10-20T23:11:13.020Z,1.47
2022-10-20T23:13:41.289Z,1.03
2022-10-20T23:16:08.671Z,1.10
2022-10-20T23:18:36.053Z,1.47
2022-10-20T23:21:03.260Z,1.10
2022-10-20T23:23:30.384Z,1.00
2022-10-20T23:25:59.595Z,1.13
2022-10-20T23:28:29.741Z,1.00
2022-10-20T23:31:11.356Z,0.97
2022-10-20T23:33:39.859Z,0.73
2022-10-20T23:36:07.507Z,0.90
2022-10-20T23:38:35.111Z,0.87
2022-10-20T23:41:02.543Z,1.10
2022-10-20T23:43:29.619Z,1.20
2022-10-20T23:45:56.652Z,1.10
2022-10-20T23:48:23.751Z,0.80
2022-10-20T23:50:50.929Z,1.03
2022-10-20T23:53:17.886Z,0.70
2022-10-20T23:55:44.873Z,1.00
2022-10-20T23:58:12.396Z,0.80
